sensor_id;sensor_type;location;lat;lon;timestamp;P1;durP1;ratioP1;P2;durP2;ratioP2
29432;SDS011;16405;53.964;13.448;2023-06-22T00:00:59;15.57;;;8.23;;
29432;SDS011;16405;53.964;13.448;2023-06-22T00:03:25;12.63;;;8.90;;
29432;SDS011;16405;53.964;13.448;2023-06-22T00:08:17;14.82;;;7.60;;
29432;SDS011;16405;53.964;13.448;2023-06-22T00:10:45;13.40;;;7.78;;
29432;SDS011;16405;53.964;13.448;2023-06-22T00:13:13;16.58;;;8.15;;
29432;SDS011;16405;53.964;13.448;2023-06-22T00:15:42;12.95;;;7.90;;
29432;SDS011;16405;53.964;13.448;2023-06-22T00:18:08;14.30;;;8.90;;
29432;SDS011;16405;53.964;13.448;2023-06-22T00:20:36;11.45;;;7.95;;
29432;SDS011;16405;53.964;13.448;2023-06-22T00:23:02;11.77;;;7.70;;
29432;SDS011;16405;53.964;13.448;2023-06-22T00:25:37;18.10;;;9.50;;
29432;SDS011;16405;53.964;13.448;2023-06-22T00:28:07;15.23;;;9.20;;
29432;SDS011;16405;53.964;13.448;2023-06-22T00:30:35;15.20;;;9.30;;
29432;SDS011;16405;53.964;13.448;2023-06-22T00:33:01;18.92;;;9.20;;
29432;SDS011;16405;53.964;13.448;2023-06-22T00:35:27;20.35;;;10.82;;
29432;SDS011;16405;53.964;13.448;2023-06-22T00:37:56;17.63;;;11.07;;
29432;SDS011;16405;53.964;13.448;2023-06-22T00:40:28;19.70;;;11.02;;
29432;SDS011;16405;53.964;13.448;2023-06-22T00:42:58;17.05;;;9.32;;
29432;SDS011;16405;53.964;13.448;2023-06-22T00:45:24;12.27;;;8.65;;
29432;SDS011;16405;53.964;13.448;2023-06-22T00:47:54;13.80;;;8.95;;
29432;SDS011;16405;53.964;13.448;2023-06-22T00:50:24;12.05;;;8.50;;
29432;SDS011;16405;53.964;13.448;2023-06-22T00:52:56;15.82;;;8.77;;
29432;SDS011;16405;53.964;13.448;2023-06-22T00:55:26;17.90;;;8.65;;
29432;SDS011;16405;53.964;13.448;2023-06-22T00:57:53;16.70;;;9.15;;
29432;SDS011;16405;53.964;13.448;2023-06-22T01:00:25;17.13;;;10.15;;
29432;SDS011;16405;53.964;13.448;2023-06-22T01:02:53;15.65;;;8.70;;
29432;SDS011;16405;53.964;13.448;2023-06-22T01:05:19;13.57;;;7.72;;
29432;SDS011;16405;53.964;13.448;2023-06-22T01:07:53;11.30;;;7.20;;
29432;SDS011;16405;53.964;13.448;2023-06-22T01:10:55;18.58;;;11.60;;
29432;SDS011;16405;53.964;13.448;2023-06-22T01:16:29;30.52;;;14.77;;
29432;SDS011;16405;53.964;13.448;2023-06-22T01:18:59;17.48;;;11.75;;
29432;SDS011;16405;53.964;13.448;2023-06-22T01:21:34;27.75;;;15.60;;
29432;SDS011;16405;53.964;13.448;2023-06-22T01:27:13;21.08;;;11.98;;
29432;SDS011;16405;53.964;13.448;2023-06-22T01:30:18;16.70;;;9.40;;
29432;SDS011;16405;53.964;13.448;2023-06-22T01:32:45;27.02;;;13.77;;
29432;SDS011;16405;53.964;13.448;2023-06-22T01:35:13;19.45;;;12.82;;
29432;SDS011;16405;53.964;13.448;2023-06-22T01:37:40;20.98;;;10.63;;
29432;SDS011;16405;53.964;13.448;2023-06-22T01:40:06;27.13;;;14.70;;
29432;SDS011;16405;53.964;13.448;2023-06-22T01:42:36;15.02;;;10.35;;
29432;SDS011;16405;53.964;13.448;2023-06-22T01:45:03;17.63;;;10.07;;
29432;SDS011;16405;53.964;13.448;2023-06-22T01:47:32;14.38;;;9.25;;
29432;SDS011;16405;53.964;13.448;2023-06-22T01:49:58;10.15;;;6.72;;
29432;SDS011;16405;53.964;13.448;2023-06-22T01:52:24;12.23;;;6.85;;
29432;SDS011;16405;53.964;13.448;2023-06-22T01:54:53;9.10;;;5.22;;
29432;SDS011;16405;53.964;13.448;2023-06-22T01:57:19;7.13;;;4.43;;
29432;SDS011;16405;53.964;13.448;2023-06-22T01:59:53;5.05;;;3.60;;
29432;SDS011;16405;53.964;13.448;2023-06-22T02:02:32;7.28;;;4.10;;
29432;SDS011;16405;53.964;13.448;2023-06-22T02:07:37;6.68;;;3.50;;
29432;SDS011;16405;53.964;13.448;2023-06-22T02:12:41;6.72;;;4.95;;
29432;SDS011;16405;53.964;13.448;2023-06-22T02:15:09;15.90;;;8.52;;
29432;SDS011;16405;53.964;13.448;2023-06-22T02:17:37;9.65;;;5.80;;
29432;SDS011;16405;53.964;13.448;2023-06-22T02:20:04;21.55;;;11.55;;
29432;SDS011;16405;53.964;13.448;2023-06-22T02:22:32;20.98;;;12.13;;
29432;SDS011;16405;53.964;13.448;2023-06-22T02:24:58;22.73;;;10.75;;
29432;SDS011;16405;53.964;13.448;2023-06-22T02:27:24;9.77;;;6.10;;
29432;SDS011;16405;53.964;13.448;2023-06-22T02:29:50;9.50;;;5.65;;
29432;SDS011;16405;53.964;13.448;2023-06-22T02:32:16;8.52;;;4.40;;
29432;SDS011;16405;53.964;13.448;2023-06-22T02:34:42;9.05;;;4.95;;
29432;SDS011;16405;53.964;13.448;2023-06-22T02:37:12;6.30;;;4.82;;
29432;SDS011;16405;53.964;13.448;2023-06-22T02:39:42;23.27;;;11.00;;
29432;SDS011;16405;53.964;13.448;2023-06-22T02:42:08;14.82;;;9.63;;
29432;SDS011;16405;53.964;13.448;2023-06-22T02:44:35;5.25;;;4.75;;
29432;SDS011;16405;53.964;13.448;2023-06-22T02:47:02;10.90;;;6.65;;
29432;SDS011;16405;53.964;13.448;2023-06-22T02:49:28;27.70;;;15.73;;
29432;SDS011;16405;53.964;13.448;2023-06-22T02:51:54;4.82;;;4.03;;
29432;SDS011;16405;53.964;13.448;2023-06-22T02:56:46;12.60;;;6.20;;
29432;SDS011;16405;53.964;13.448;2023-06-22T02:59:13;10.35;;;6.63;;
29432;SDS011;16405;53.964;13.448;2023-06-22T03:01:39;14.85;;;7.78;;
29432;SDS011;16405;53.964;13.448;2023-06-22T03:04:11;16.63;;;8.27;;
29432;SDS011;16405;53.964;13.448;2023-06-22T03:06:36;16.75;;;8.88;;
29432;SDS011;16405;53.964;13.448;2023-06-22T03:09:05;10.27;;;6.80;;
29432;SDS011;16405;53.964;13.448;2023-06-22T03:11:32;15.32;;;9.80;;
29432;SDS011;16405;53.964;13.448;2023-06-22T03:13:59;10.50;;;5.13;;
29432;SDS011;16405;53.964;13.448;2023-06-22T03:16:28;9.40;;;5.53;;
29432;SDS011;16405;53.964;13.448;2023-06-22T03:18:54;6.60;;;3.55;;
29432;SDS011;16405;53.964;13.448;2023-06-22T03:21:21;16.67;;;4.20;;
29432;SDS011;16405;53.964;13.448;2023-06-22T03:23:48;11.93;;;4.38;;
29432;SDS011;16405;53.964;13.448;2023-06-22T03:26:16;6.78;;;4.40;;
29432;SDS011;16405;53.964;13.448;2023-06-22T03:28:46;8.60;;;4.93;;
29432;SDS011;16405;53.964;13.448;2023-06-22T03:31:12;9.18;;;6.07;;
29432;SDS011;16405;53.964;13.448;2023-06-22T03:33:38;11.88;;;7.28;;
29432;SDS011;16405;53.964;13.448;2023-06-22T03:38:29;9.02;;;4.90;;
29432;SDS011;16405;53.964;13.448;2023-06-22T03:40:58;10.98;;;5.93;;
29432;SDS011;16405;53.964;13.448;2023-06-22T03:43:26;6.70;;;5.78;;
29432;SDS011;16405;53.964;13.448;2023-06-22T03:45:52;13.15;;;5.53;;
29432;SDS011;16405;53.964;13.448;2023-06-22T03:48:17;13.68;;;6.63;;
29432;SDS011;16405;53.964;13.448;2023-06-22T03:50:43;16.23;;;6.50;;
29432;SDS011;16405;53.964;13.448;2023-06-22T03:53:09;9.25;;;6.45;;
29432;SDS011;16405;53.964;13.448;2023-06-22T03:55:49;27.65;;;7.20;;
29432;SDS011;16405;53.964;13.448;2023-06-22T03:58:17;10.20;;;5.45;;
29432;SDS011;16405;53.964;13.448;2023-06-22T04:00:47;35.03;;;5.90;;
29432;SDS011;16405;53.964;13.448;2023-06-22T04:03:17;38.78;;;5.72;;
29432;SDS011;16405;53.964;13.448;2023-06-22T04:05:44;17.08;;;5.18;;
29432;SDS011;16405;53.964;13.448;2023-06-22T04:08:10;20.00;;;4.72;;
29432;SDS011;16405;53.964;13.448;2023-06-22T04:10:37;22.80;;;4.75;;
29432;SDS011;16405;53.964;13.448;2023-06-22T04:13:03;63.35;;;7.00;;
29432;SDS011;16405;53.964;13.448;2023-06-22T04:15:29;15.70;;;6.40;;
29432;SDS011;16405;53.964;13.448;2023-06-22T04:17:55;14.77;;;8.27;;
29432;SDS011;16405;53.964;13.448;2023-06-22T04:20:22;15.02;;;6.65;;
29432;SDS011;16405;53.964;13.448;2023-06-22T04:22:53;14.23;;;7.93;;
29432;SDS011;16405;53.964;13.448;2023-06-22T04:25:20;20.02;;;8.73;;
29432;SDS011;16405;53.964;13.448;2023-06-22T04:27:47;8.63;;;3.80;;
29432;SDS011;16405;53.964;13.448;2023-06-22T04:30:13;9.15;;;4.55;;
29432;SDS011;16405;53.964;13.448;2023-06-22T04:32:43;12.65;;;4.45;;
29432;SDS011;16405;53.964;13.448;2023-06-22T04:35:09;6.65;;;3.40;;
29432;SDS011;16405;53.964;13.448;2023-06-22T04:37:36;10.75;;;3.65;;
29432;SDS011;16405;53.964;13.448;2023-06-22T04:40:04;16.90;;;3.63;;
29432;SDS011;16405;53.964;13.448;2023-06-22T04:42:33;14.68;;;3.25;;
29432;SDS011;16405;53.964;13.448;2023-06-22T04:45:00;13.02;;;4.75;;
29432;SDS011;16405;53.964;13.448;2023-06-22T04:47:26;15.13;;;5.15;;
29432;SDS011;16405;53.964;13.448;2023-06-22T04:52:17;15.38;;;10.48;;
29432;SDS011;16405;53.964;13.448;2023-06-22T04:54:45;24.80;;;12.73;;
29432;SDS011;16405;53.964;13.448;2023-06-22T04:57:20;23.23;;;13.57;;
29432;SDS011;16405;53.964;13.448;2023-06-22T04:59:46;20.42;;;11.80;;
29432;SDS011;16405;53.964;13.448;2023-06-22T05:02:12;20.02;;;13.20;;
29432;SDS011;16405;53.964;13.448;2023-06-22T05:04:40;26.48;;;13.25;;
29432;SDS011;16405;53.964;13.448;2023-06-22T05:07:06;18.83;;;12.40;;
29432;SDS011;16405;53.964;13.448;2023-06-22T05:09:32;21.83;;;13.60;;
29432;SDS011;16405;53.964;13.448;2023-06-22T05:12:01;21.90;;;12.75;;
29432;SDS011;16405;53.964;13.448;2023-06-22T05:14:28;25.80;;;13.50;;
29432;SDS011;16405;53.964;13.448;2023-06-22T05:16:55;20.65;;;12.95;;
29432;SDS011;16405;53.964;13.448;2023-06-22T05:19:23;20.88;;;13.55;;
29432;SDS011;16405;53.964;13.448;2023-06-22T05:21:50;21.17;;;12.30;;
29432;SDS011;16405;53.964;13.448;2023-06-22T05:24:16;17.10;;;12.05;;
29432;SDS011;16405;53.964;13.448;2023-06-22T05:26:42;17.65;;;10.98;;
29432;SDS011;16405;53.964;13.448;2023-06-22T05:29:07;15.07;;;11.70;;
29432;SDS011;16405;53.964;13.448;2023-06-22T05:31:33;16.75;;;12.40;;
29432;SDS011;16405;53.964;13.448;2023-06-22T05:33:59;18.48;;;10.68;;
29432;SDS011;16405;53.964;13.448;2023-06-22T05:36:27;16.63;;;10.70;;
29432;SDS011;16405;53.964;13.448;2023-06-22T05:38:53;22.20;;;11.13;;
29432;SDS011;16405;53.964;13.448;2023-06-22T05:41:21;20.40;;;12.77;;
29432;SDS011;16405;53.964;13.448;2023-06-22T05:43:47;22.38;;;12.48;;
29432;SDS011;16405;53.964;13.448;2023-06-22T05:46:21;16.63;;;12.02;;
29432;SDS011;16405;53.964;13.448;2023-06-22T05:48:47;17.60;;;12.20;;
29432;SDS011;16405;53.964;13.448;2023-06-22T05:51:13;17.73;;;11.10;;
29432;SDS011;16405;53.964;13.448;2023-06-22T05:53:39;19.02;;;12.13;;
29432;SDS011;16405;53.964;13.448;2023-06-22T05:56:05;14.70;;;10.85;;
29432;SDS011;16405;53.964;13.448;2023-06-22T05:58:31;15.52;;;10.00;;
29432;SDS011;16405;53.964;13.448;2023-06-22T06:01:04;17.88;;;10.40;;
29432;SDS011;16405;53.964;13.448;2023-06-22T06:03:30;19.83;;;11.18;;
29432;SDS011;16405;53.964;13.448;2023-06-22T06:05:57;17.15;;;10.27;;
29432;SDS011;16405;53.964;13.448;2023-06-22T06:08:22;19.38;;;10.70;;
29432;SDS011;16405;53.964;13.448;2023-06-22T06:10:49;23.45;;;10.30;;
29432;SDS011;16405;53.964;13.448;2023-06-22T06:13:19;19.90;;;10.38;;
29432;SDS011;16405;53.964;13.448;2023-06-22T06:15:45;14.68;;;10.38;;
29432;SDS011;16405;53.964;13.448;2023-06-22T06:18:11;15.05;;;10.20;;
29432;SDS011;16405;53.964;13.448;2023-06-22T06:20:37;21.77;;;10.85;;
29432;SDS011;16405;53.964;13.448;2023-06-22T06:23:03;19.25;;;11.18;;
29432;SDS011;16405;53.964;13.448;2023-06-22T06:25:28;21.27;;;11.18;;
29432;SDS011;16405;53.964;13.448;2023-06-22T06:27:57;17.75;;;10.95;;
29432;SDS011;16405;53.964;13.448;2023-06-22T06:30:22;14.55;;;9.68;;
29432;SDS011;16405;53.964;13.448;2023-06-22T06:32:49;20.90;;;10.68;;
29432;SDS011;16405;53.964;13.448;2023-06-22T06:35:15;16.90;;;10.38;;
29432;SDS011;16405;53.964;13.448;2023-06-22T06:37:43;17.88;;;9.60;;
29432;SDS011;16405;53.964;13.448;2023-06-22T06:40:13;15.88;;;9.10;;
29432;SDS011;16405;53.964;13.448;2023-06-22T06:42:41;15.85;;;8.50;;
29432;SDS011;16405;53.964;13.448;2023-06-22T06:45:17;14.25;;;9.18;;
29432;SDS011;16405;53.964;13.448;2023-06-22T06:47:47;17.98;;;8.80;;
29432;SDS011;16405;53.964;13.448;2023-06-22T06:50:14;15.45;;;8.27;;
29432;SDS011;16405;53.964;13.448;2023-06-22T06:52:40;16.02;;;7.75;;
29432;SDS011;16405;53.964;13.448;2023-06-22T06:55:09;12.77;;;8.30;;
29432;SDS011;16405;53.964;13.448;2023-06-22T06:57:37;11.27;;;7.70;;
29432;SDS011;16405;53.964;13.448;2023-06-22T07:00:07;13.07;;;7.10;;
29432;SDS011;16405;53.964;13.448;2023-06-22T07:02:39;12.15;;;6.35;;
29432;SDS011;16405;53.964;13.448;2023-06-22T07:05:06;11.77;;;6.82;;
29432;SDS011;16405;53.964;13.448;2023-06-22T07:07:33;10.20;;;5.78;;
29432;SDS011;16405;53.964;13.448;2023-06-22T07:09:59;14.93;;;5.72;;
29432;SDS011;16405;53.964;13.448;2023-06-22T07:12:25;9.40;;;5.97;;
29432;SDS011;16405;53.964;13.448;2023-06-22T07:14:51;15.88;;;6.10;;
29432;SDS011;16405;53.964;13.448;2023-06-22T07:17:18;8.82;;;6.20;;
29432;SDS011;16405;53.964;13.448;2023-06-22T07:19:44;9.50;;;5.65;;
29432;SDS011;16405;53.964;13.448;2023-06-22T07:22:10;11.23;;;5.50;;
29432;SDS011;16405;53.964;13.448;2023-06-22T07:24:36;9.95;;;5.57;;
29432;SDS011;16405;53.964;13.448;2023-06-22T07:27:02;11.35;;;6.13;;
29432;SDS011;16405;53.964;13.448;2023-06-22T07:29:31;13.15;;;7.07;;
29432;SDS011;16405;53.964;13.448;2023-06-22T07:31:58;12.15;;;6.38;;
29432;SDS011;16405;53.964;13.448;2023-06-22T07:34:25;13.32;;;6.25;;
29432;SDS011;16405;53.964;13.448;2023-06-22T07:36:51;12.80;;;5.10;;
29432;SDS011;16405;53.964;13.448;2023-06-22T07:39:17;8.90;;;5.20;;
29432;SDS011;16405;53.964;13.448;2023-06-22T07:41:43;9.45;;;5.40;;
29432;SDS011;16405;53.964;13.448;2023-06-22T07:44:09;16.33;;;5.15;;
29432;SDS011;16405;53.964;13.448;2023-06-22T07:46:34;24.65;;;5.88;;
29432;SDS011;16405;53.964;13.448;2023-06-22T07:49:02;7.70;;;4.13;;
29432;SDS011;16405;53.964;13.448;2023-06-22T07:51:28;6.28;;;3.45;;
29432;SDS011;16405;53.964;13.448;2023-06-22T07:53:53;14.80;;;3.97;;
29432;SDS011;16405;53.964;13.448;2023-06-22T07:56:20;9.60;;;4.00;;
29432;SDS011;16405;53.964;13.448;2023-06-22T07:58:46;4.82;;;2.80;;
29432;SDS011;16405;53.964;13.448;2023-06-22T08:01:15;7.93;;;3.63;;
29432;SDS011;16405;53.964;13.448;2023-06-22T08:03:42;7.95;;;3.60;;
29432;SDS011;16405;53.964;13.448;2023-06-22T08:06:08;8.60;;;3.67;;
29432;SDS011;16405;53.964;13.448;2023-06-22T08:08:37;7.53;;;3.80;;
29432;SDS011;16405;53.964;13.448;2023-06-22T08:11:03;8.25;;;3.67;;
29432;SDS011;16405;53.964;13.448;2023-06-22T08:13:30;6.05;;;2.75;;
29432;SDS011;16405;53.964;13.448;2023-06-22T08:15:55;7.20;;;2.70;;
29432;SDS011;16405;53.964;13.448;2023-06-22T08:18:21;8.68;;;2.70;;
29432;SDS011;16405;53.964;13.448;2023-06-22T08:20:47;7.43;;;2.75;;
29432;SDS011;16405;53.964;13.448;2023-06-22T08:23:13;5.25;;;2.75;;
29432;SDS011;16405;53.964;13.448;2023-06-22T08:25:38;3.58;;;2.60;;
29432;SDS011;16405;53.964;13.448;2023-06-22T08:28:04;3.00;;;2.00;;
29432;SDS011;16405;53.964;13.448;2023-06-22T08:30:30;13.65;;;2.78;;
29432;SDS011;16405;53.964;13.448;2023-06-22T08:32:56;8.07;;;3.03;;
29432;SDS011;16405;53.964;13.448;2023-06-22T08:35:22;4.80;;;2.25;;
29432;SDS011;16405;53.964;13.448;2023-06-22T08:37:48;3.38;;;2.13;;
29432;SDS011;16405;53.964;13.448;2023-06-22T08:40:17;4.32;;;2.20;;
29432;SDS011;16405;53.964;13.448;2023-06-22T08:42:45;3.05;;;2.05;;
29432;SDS011;16405;53.964;13.448;2023-06-22T08:45:12;7.93;;;2.28;;
29432;SDS011;16405;53.964;13.448;2023-06-22T08:47:39;6.80;;;2.22;;
29432;SDS011;16405;53.964;13.448;2023-06-22T08:50:08;4.38;;;2.30;;
29432;SDS011;16405;53.964;13.448;2023-06-22T08:52:36;4.28;;;2.33;;
29432;SDS011;16405;53.964;13.448;2023-06-22T08:55:06;11.32;;;2.20;;
29432;SDS011;16405;53.964;13.448;2023-06-22T08:57:34;4.18;;;2.10;;
29432;SDS011;16405;53.964;13.448;2023-06-22T09:00:02;11.60;;;2.40;;
29432;SDS011;16405;53.964;13.448;2023-06-22T09:02:41;3.45;;;2.45;;
29432;SDS011;16405;53.964;13.448;2023-06-22T09:05:12;6.18;;;2.35;;
29432;SDS011;16405;53.964;13.448;2023-06-22T09:07:38;5.47;;;2.00;;
29432;SDS011;16405;53.964;13.448;2023-06-22T09:10:05;6.03;;;2.33;;
29432;SDS011;16405;53.964;13.448;2023-06-22T09:12:32;3.72;;;2.05;;
29432;SDS011;16405;53.964;13.448;2023-06-22T09:15:02;5.07;;;2.20;;
29432;SDS011;16405;53.964;13.448;2023-06-22T09:17:29;5.75;;;2.33;;
29432;SDS011;16405;53.964;13.448;2023-06-22T09:19:55;3.00;;;2.03;;
29432;SDS011;16405;53.964;13.448;2023-06-22T09:22:22;5.32;;;2.00;;
29432;SDS011;16405;53.964;13.448;2023-06-22T09:24:48;4.30;;;2.22;;
29432;SDS011;16405;53.964;13.448;2023-06-22T09:27:14;5.10;;;2.50;;
29432;SDS011;16405;53.964;13.448;2023-06-22T09:29:40;9.63;;;2.17;;
29432;SDS011;16405;53.964;13.448;2023-06-22T09:32:09;4.70;;;2.17;;
29432;SDS011;16405;53.964;13.448;2023-06-22T09:34:35;3.63;;;2.30;;
29432;SDS011;16405;53.964;13.448;2023-06-22T09:37:04;9.77;;;2.10;;
29432;SDS011;16405;53.964;13.448;2023-06-22T09:39:35;4.95;;;2.45;;
29432;SDS011;16405;53.964;13.448;2023-06-22T09:42:04;5.53;;;2.60;;
29432;SDS011;16405;53.964;13.448;2023-06-22T09:44:31;5.88;;;2.75;;
29432;SDS011;16405;53.964;13.448;2023-06-22T09:47:03;7.90;;;2.00;;
29432;SDS011;16405;53.964;13.448;2023-06-22T09:49:34;5.88;;;2.58;;
29432;SDS011;16405;53.964;13.448;2023-06-22T09:52:00;5.40;;;2.55;;
29432;SDS011;16405;53.964;13.448;2023-06-22T09:54:32;6.40;;;2.40;;
29432;SDS011;16405;53.964;13.448;2023-06-22T09:57:03;5.50;;;2.45;;
29432;SDS011;16405;53.964;13.448;2023-06-22T09:59:30;4.95;;;2.80;;
29432;SDS011;16405;53.964;13.448;2023-06-22T10:01:56;7.35;;;2.50;;
29432;SDS011;16405;53.964;13.448;2023-06-22T10:04:28;9.45;;;2.60;;
29432;SDS011;16405;53.964;13.448;2023-06-22T10:07:00;3.85;;;2.17;;
29432;SDS011;16405;53.964;13.448;2023-06-22T10:09:32;3.83;;;2.35;;
29432;SDS011;16405;53.964;13.448;2023-06-22T10:11:58;3.40;;;2.08;;
29432;SDS011;16405;53.964;13.448;2023-06-22T10:14:27;6.80;;;2.55;;
29432;SDS011;16405;53.964;13.448;2023-06-22T10:16:57;3.83;;;2.30;;
29432;SDS011;16405;53.964;13.448;2023-06-22T10:19:26;4.18;;;2.17;;
29432;SDS011;16405;53.964;13.448;2023-06-22T10:21:51;3.80;;;2.30;;
29432;SDS011;16405;53.964;13.448;2023-06-22T10:24:21;3.47;;;2.00;;
29432;SDS011;16405;53.964;13.448;2023-06-22T10:26:47;3.97;;;2.17;;
29432;SDS011;16405;53.964;13.448;2023-06-22T10:29:13;7.85;;;2.60;;
29432;SDS011;16405;53.964;13.448;2023-06-22T10:31:41;3.60;;;2.40;;
29432;SDS011;16405;53.964;13.448;2023-06-22T10:34:13;4.63;;;2.20;;
29432;SDS011;16405;53.964;13.448;2023-06-22T10:36:44;2.60;;;2.40;;
29432;SDS011;16405;53.964;13.448;2023-06-22T10:39:14;4.13;;;2.13;;
29432;SDS011;16405;53.964;13.448;2023-06-22T10:41:43;4.63;;;2.63;;
29432;SDS011;16405;53.964;13.448;2023-06-22T10:44:15;4.65;;;2.50;;
29432;SDS011;16405;53.964;13.448;2023-06-22T10:46:44;3.47;;;2.00;;
29432;SDS011;16405;53.964;13.448;2023-06-22T10:49:13;3.05;;;1.95;;
29432;SDS011;16405;53.964;13.448;2023-06-22T10:51:44;4.15;;;2.50;;
29432;SDS011;16405;53.964;13.448;2023-06-22T10:54:13;4.68;;;2.00;;
29432;SDS011;16405;53.964;13.448;2023-06-22T10:56:45;4.28;;;2.22;;
29432;SDS011;16405;53.964;13.448;2023-06-22T10:59:14;4.18;;;2.08;;
29432;SDS011;16405;53.964;13.448;2023-06-22T11:01:46;4.88;;;2.58;;
29432;SDS011;16405;53.964;13.448;2023-06-22T11:04:14;3.85;;;1.83;;
29432;SDS011;16405;53.964;13.448;2023-06-22T11:06:43;5.00;;;2.13;;
29432;SDS011;16405;53.964;13.448;2023-06-22T11:09:12;7.72;;;2.90;;
29432;SDS011;16405;53.964;13.448;2023-06-22T11:11:43;6.00;;;2.20;;
29432;SDS011;16405;53.964;13.448;2023-06-22T11:14:10;7.40;;;2.38;;
29432;SDS011;16405;53.964;13.448;2023-06-22T11:16:36;2.88;;;2.15;;
29432;SDS011;16405;53.964;13.448;2023-06-22T11:19:05;3.30;;;2.13;;
29432;SDS011;16405;53.964;13.448;2023-06-22T11:21:31;3.50;;;2.20;;
29432;SDS011;16405;53.964;13.448;2023-06-22T11:24:00;5.53;;;2.20;;
29432;SDS011;16405;53.964;13.448;2023-06-22T11:26:33;8.68;;;2.40;;
29432;SDS011;16405;53.964;13.448;2023-06-22T11:29:05;3.78;;;2.05;;
29432;SDS011;16405;53.964;13.448;2023-06-22T11:31:33;5.22;;;2.17;;
29432;SDS011;16405;53.964;13.448;2023-06-22T11:34:00;5.32;;;2.30;;
29432;SDS011;16405;53.964;13.448;2023-06-22T11:36:30;3.65;;;2.15;;
29432;SDS011;16405;53.964;13.448;2023-06-22T11:39:01;8.00;;;2.85;;
29432;SDS011;16405;53.964;13.448;2023-06-22T11:41:30;5.25;;;2.28;;
29432;SDS011;16405;53.964;13.448;2023-06-22T11:44:01;3.40;;;2.20;;
29432;SDS011;16405;53.964;13.448;2023-06-22T11:46:37;6.17;;;2.27;;
29432;SDS011;16405;53.964;13.448;2023-06-22T11:49:07;4.68;;;2.15;;
29432;SDS011;16405;53.964;13.448;2023-06-22T11:51:33;4.65;;;2.20;;
29432;SDS011;16405;53.964;13.448;2023-06-22T11:53:59;4.57;;;2.40;;
29432;SDS011;16405;53.964;13.448;2023-06-22T11:56:28;6.28;;;1.98;;
29432;SDS011;16405;53.964;13.448;2023-06-22T11:58:58;4.90;;;2.13;;
29432;SDS011;16405;53.964;13.448;2023-06-22T12:01:24;7.35;;;2.53;;
29432;SDS011;16405;53.964;13.448;2023-06-22T12:03:53;6.78;;;2.33;;
29432;SDS011;16405;53.964;13.448;2023-06-22T12:06:22;4.53;;;2.45;;
29432;SDS011;16405;53.964;13.448;2023-06-22T12:08:48;6.20;;;2.30;;
29432;SDS011;16405;53.964;13.448;2023-06-22T12:11:18;6.05;;;2.17;;
29432;SDS011;16405;53.964;13.448;2023-06-22T12:13:46;5.30;;;2.80;;
29432;SDS011;16405;53.964;13.448;2023-06-22T12:16:12;4.43;;;2.35;;
29432;SDS011;16405;53.964;13.448;2023-06-22T12:18:38;5.75;;;2.20;;
29432;SDS011;16405;53.964;13.448;2023-06-22T12:21:10;4.43;;;2.58;;
29432;SDS011;16405;53.964;13.448;2023-06-22T12:23:36;4.78;;;2.40;;
29432;SDS011;16405;53.964;13.448;2023-06-22T12:26:02;5.30;;;2.45;;
29432;SDS011;16405;53.964;13.448;2023-06-22T12:28:28;6.40;;;2.47;;
29432;SDS011;16405;53.964;13.448;2023-06-22T12:30:59;3.42;;;2.20;;
29432;SDS011;16405;53.964;13.448;2023-06-22T12:33:25;5.57;;;2.28;;
29432;SDS011;16405;53.964;13.448;2023-06-22T12:35:51;3.13;;;2.13;;
29432;SDS011;16405;53.964;13.448;2023-06-22T12:38:20;4.57;;;2.80;;
29432;SDS011;16405;53.964;13.448;2023-06-22T12:40:53;4.75;;;2.20;;
29432;SDS011;16405;53.964;13.448;2023-06-22T12:43:22;3.65;;;2.47;;
29432;SDS011;16405;53.964;13.448;2023-06-22T12:45:48;6.20;;;1.85;;
29432;SDS011;16405;53.964;13.448;2023-06-22T12:48:13;5.70;;;2.13;;
29432;SDS011;16405;53.964;13.448;2023-06-22T12:50:39;5.80;;;2.20;;
29432;SDS011;16405;53.964;13.448;2023-06-22T12:53:05;2.90;;;1.98;;
29432;SDS011;16405;53.964;13.448;2023-06-22T12:55:31;4.47;;;2.10;;
29432;SDS011;16405;53.964;13.448;2023-06-22T12:57:57;2.47;;;1.90;;
29432;SDS011;16405;53.964;13.448;2023-06-22T13:00:23;3.42;;;1.83;;
29432;SDS011;16405;53.964;13.448;2023-06-22T13:02:49;4.95;;;2.42;;
29432;SDS011;16405;53.964;13.448;2023-06-22T13:05:15;5.90;;;2.03;;
29432;SDS011;16405;53.964;13.448;2023-06-22T13:07:41;2.55;;;2.10;;
29432;SDS011;16405;53.964;13.448;2023-06-22T13:10:07;2.42;;;1.95;;
29432;SDS011;16405;53.964;13.448;2023-06-22T13:12:33;3.15;;;2.00;;
29432;SDS011;16405;53.964;13.448;2023-06-22T13:14:59;7.70;;;2.30;;
29432;SDS011;16405;53.964;13.448;2023-06-22T13:17:25;7.63;;;2.15;;
29432;SDS011;16405;53.964;13.448;2023-06-22T13:19:51;6.00;;;1.95;;
29432;SDS011;16405;53.964;13.448;2023-06-22T13:24:56;6.63;;;2.28;;
29432;SDS011;16405;53.964;13.448;2023-06-22T13:27:23;3.63;;;2.05;;
29432;SDS011;16405;53.964;13.448;2023-06-22T13:29:49;3.90;;;2.17;;
29432;SDS011;16405;53.964;13.448;2023-06-22T13:32:15;7.38;;;2.38;;
29432;SDS011;16405;53.964;13.448;2023-06-22T13:34:42;7.18;;;2.28;;
29432;SDS011;16405;53.964;13.448;2023-06-22T13:37:08;6.80;;;2.08;;
29432;SDS011;16405;53.964;13.448;2023-06-22T13:39:34;2.65;;;2.00;;
29432;SDS011;16405;53.964;13.448;2023-06-22T13:42:00;4.88;;;2.05;;
29432;SDS011;16405;53.964;13.448;2023-06-22T13:44:26;3.15;;;2.00;;
29432;SDS011;16405;53.964;13.448;2023-06-22T13:46:54;5.78;;;2.42;;
29432;SDS011;16405;53.964;13.448;2023-06-22T13:49:20;3.55;;;2.10;;
29432;SDS011;16405;53.964;13.448;2023-06-22T13:51:49;6.25;;;2.58;;
29432;SDS011;16405;53.964;13.448;2023-06-22T13:54:16;4.85;;;2.13;;
29432;SDS011;16405;53.964;13.448;2023-06-22T13:56:45;7.22;;;2.53;;
29432;SDS011;16405;53.964;13.448;2023-06-22T13:59:11;2.88;;;2.03;;
29432;SDS011;16405;53.964;13.448;2023-06-22T14:01:37;6.57;;;2.40;;
29432;SDS011;16405;53.964;13.448;2023-06-22T14:04:05;5.78;;;2.50;;
29432;SDS011;16405;53.964;13.448;2023-06-22T14:06:31;5.97;;;2.47;;
29432;SDS011;16405;53.964;13.448;2023-06-22T14:08:57;5.05;;;2.35;;
29432;SDS011;16405;53.964;13.448;2023-06-22T14:11:23;4.60;;;1.95;;
29432;SDS011;16405;53.964;13.448;2023-06-22T14:13:50;6.20;;;2.85;;
29432;SDS011;16405;53.964;13.448;2023-06-22T14:16:15;6.03;;;2.33;;
29432;SDS011;16405;53.964;13.448;2023-06-22T14:18:41;3.05;;;2.13;;
29432;SDS011;16405;53.964;13.448;2023-06-22T14:21:07;3.00;;;1.90;;
29432;SDS011;16405;53.964;13.448;2023-06-22T14:23:33;5.32;;;2.20;;
29432;SDS011;16405;53.964;13.448;2023-06-22T14:25:59;6.13;;;2.50;;
29432;SDS011;16405;53.964;13.448;2023-06-22T14:28:25;6.68;;;2.38;;
29432;SDS011;16405;53.964;13.448;2023-06-22T14:30:51;3.00;;;2.00;;
29432;SDS011;16405;53.964;13.448;2023-06-22T14:33:16;4.15;;;2.10;;
29432;SDS011;16405;53.964;13.448;2023-06-22T14:35:42;5.57;;;2.33;;
29432;SDS011;16405;53.964;13.448;2023-06-22T14:38:08;5.10;;;2.42;;
29432;SDS011;16405;53.964;13.448;2023-06-22T14:40:34;6.50;;;2.08;;
29432;SDS011;16405;53.964;13.448;2023-06-22T14:42:59;3.67;;;2.10;;
29432;SDS011;16405;53.964;13.448;2023-06-22T14:45:25;7.32;;;2.10;;
29432;SDS011;16405;53.964;13.448;2023-06-22T14:47:51;8.63;;;2.40;;
29432;SDS011;16405;53.964;13.448;2023-06-22T14:50:17;3.40;;;2.00;;
29432;SDS011;16405;53.964;13.448;2023-06-22T14:52:43;3.78;;;2.08;;